createdAt,value
2019-01-13T00:02:09.861Z,5.62
2019-01-13T00:04:58.297Z,3.22
2019-01-13T00:07:46.792Z,5.28
2019-01-13T00:10:35.273Z,2.67
2019-01-13T00:13:23.613Z,4.12
2019-01-13T00:16:11.883Z,2.85
2019-01-13T00:19:00.413Z,2.22
2019-01-13T00:21:48.770Z,4.80
2019-01-13T00:24:37.155Z,4.17
2019-01-13T00:27:25.530Z,1.90
2019-01-13T00:30:07.219Z,2.80
2019-01-13T00:32:48.297Z,6.30
2019-01-13T00:35:29.212Z,6.00
2019-01-13T00:38:09.859Z,3.62
2019-01-13T00:40:50.782Z,5.00
2019-01-13T00:43:31.987Z,2.08
2019-01-13T00:46:13.319Z,3.75
2019-01-13T00:48:53.968Z,3.05
2019-01-13T00:51:35.247Z,4.55
2019-01-13T00:54:16.702Z,3.02
2019-01-13T00:56:57.962Z,4.55
2019-01-13T00:59:39.748Z,2.58
2019-01-13T01:02:20.857Z,2.90
2019-01-13T01:05:02.657Z,3.10
2019-01-13T01:07:43.598Z,4.90
2019-01-13T01:10:24.785Z,2.25
2019-01-13T01:13:05.585Z,1.42
2019-01-13T01:15:46.904Z,1.42
2019-01-13T01:18:27.572Z,1.27
2019-01-13T01:23:51.329Z,1.95
2019-01-13T01:26:31.879Z,2.15
2019-01-13T01:29:13.264Z,3.72
2019-01-13T01:31:54.686Z,2.33
2019-01-13T01:34:35.578Z,3.30
2019-01-13T01:37:16.524Z,4.25
2019-01-13T01:39:57.296Z,0.93
2019-01-13T01:42:38.643Z,2.37
2019-01-13T01:45:20.004Z,1.42
2019-01-13T01:48:00.614Z,1.85
2019-01-13T01:50:41.202Z,2.02
2019-01-13T01:53:21.702Z,2.02
2019-01-13T01:56:02.879Z,1.77
2019-01-13T01:58:43.983Z,1.70
2019-01-13T02:01:25.208Z,1.25
2019-01-13T02:04:05.973Z,1.15
2019-01-13T02:06:46.809Z,1.72
2019-01-13T02:09:28.275Z,1.52
2019-01-13T02:12:08.925Z,1.02
2019-01-13T02:14:50.254Z,4.53
2019-01-13T02:17:38.023Z,2.95
2019-01-13T02:20:11.752Z,1.75
2019-01-13T02:22:41.333Z,1.82
2019-01-13T02:25:30.759Z,1.95
2019-01-13T02:28:12.102Z,2.08
2019-01-13T02:30:52.996Z,1.90
2019-01-13T02:33:34.371Z,1.62
2019-01-13T02:39:42.240Z,1.50
2019-01-13T02:45:16.593Z,1.40
2019-01-13T02:56:28.205Z,1.62
2019-01-13T02:59:09.657Z,1.60
2019-01-13T03:01:50.477Z,2.08
2019-01-13T03:04:29.830Z,1.60
2019-01-13T03:10:19.968Z,1.35
2019-01-13T03:13:09.857Z,2.00
2019-01-13T03:15:59.645Z,2.00
2019-01-13T03:18:50.242Z,1.85
2019-01-13T03:21:38.713Z,1.50
2019-01-13T03:24:27.030Z,2.50
2019-01-13T03:27:15.591Z,1.98
2019-01-13T03:29:57.284Z,2.52
2019-01-13T03:32:38.749Z,2.58
2019-01-13T03:35:47.587Z,3.87
2019-01-13T03:38:36.088Z,2.95
2019-01-13T03:41:24.975Z,2.02
2019-01-13T03:43:54.589Z,2.25
2019-01-13T03:46:43.726Z,2.05
2019-01-13T03:49:33.155Z,3.12
2019-01-13T03:52:02.708Z,1.95
2019-01-13T03:54:55.174Z,1.95
2019-01-13T03:57:24.614Z,2.85
2019-01-13T04:00:32.066Z,3.58
2019-01-13T04:03:02.989Z,2.25
2019-01-13T04:05:32.423Z,2.20
2019-01-13T04:08:01.911Z,2.20
2019-01-13T04:10:31.362Z,3.42
2019-01-13T04:13:00.925Z,2.37
2019-01-13T04:18:49.654Z,2.35
2019-01-13T04:21:19.207Z,2.17
2019-01-13T04:23:48.726Z,2.75
2019-01-13T04:26:38.431Z,2.60
2019-01-13T04:35:54.005Z,1.92
2019-01-13T04:38:23.739Z,2.10
2019-01-13T04:40:53.269Z,1.90
2019-01-13T04:44:07.816Z,2.40
2019-01-13T04:46:58.717Z,2.10
2019-01-13T04:50:17.421Z,2.20
2019-01-13T04:56:09.935Z,1.82
2019-01-13T04:58:39.912Z,2.15
2019-01-13T05:04:10.897Z,2.58
2019-01-13T05:06:59.160Z,2.45
2019-01-13T05:10:03.112Z,3.45
2019-01-13T05:12:51.607Z,2.80
2019-01-13T05:15:39.929Z,3.10
2019-01-13T05:18:32.770Z,3.65
2019-01-13T05:21:26.583Z,2.55
2019-01-13T05:24:15.037Z,2.62
2019-01-13T05:27:03.320Z,2.75
2019-01-13T05:29:44.788Z,2.58
2019-01-13T05:32:25.565Z,2.60
2019-01-13T05:35:06.891Z,2.10
2019-01-13T05:40:31.173Z,2.67
2019-01-13T05:43:16.601Z,2.60
2019-01-13T05:46:10.311Z,1.77
2019-01-13T05:48:53.282Z,2.17
2019-01-13T05:51:33.933Z,2.30
2019-01-13T05:54:14.513Z,2.05
2019-01-13T06:23:21.970Z,1.65
2019-01-13T06:26:03.149Z,1.90
2019-01-13T06:28:45.610Z,3.83
2019-01-13T06:31:26.311Z,1.77
2019-01-13T06:34:07.544Z,3.12
2019-01-13T06:39:31.935Z,2.20
2019-01-13T06:45:01.124Z,2.00
2019-01-13T06:47:42.550Z,1.55
2019-01-13T06:50:23.220Z,2.33
2019-01-13T06:52:52.420Z,2.02
2019-01-13T06:55:21.547Z,2.30
2019-01-13T06:57:51.858Z,2.05
2019-01-13T07:00:31.895Z,1.70
2019-01-13T07:03:01.416Z,2.10
2019-01-13T07:05:30.879Z,1.98
2019-01-13T07:08:19.300Z,2.45
2019-01-13T07:11:07.820Z,2.05
2019-01-13T07:13:56.072Z,2.45
2019-01-13T07:16:44.441Z,2.35
2019-01-13T07:19:32.704Z,2.10
2019-01-13T07:22:20.933Z,2.80
2019-01-13T07:25:09.293Z,2.98
2019-01-13T07:27:57.847Z,2.08
2019-01-13T07:30:38.907Z,3.10
2019-01-13T07:33:19.897Z,1.60
2019-01-13T07:36:01.624Z,1.80
2019-01-13T07:38:43.022Z,1.98
2019-01-13T07:41:24.097Z,1.35
2019-01-13T07:44:05.844Z,1.70
2019-01-13T07:49:47.384Z,2.30
2019-01-13T07:52:16.591Z,2.45
2019-01-13T07:55:05.883Z,4.12
2019-01-13T07:57:54.273Z,2.22
2019-01-13T08:00:42.596Z,2.67
2019-01-13T08:03:11.753Z,2.58
2019-01-13T08:06:00.143Z,1.90
2019-01-13T08:08:30.225Z,2.08
2019-01-13T08:10:59.461Z,2.10
2019-01-13T08:13:47.674Z,2.15
2019-01-13T08:16:36.027Z,2.15
2019-01-13T08:19:25.048Z,1.55
2019-01-13T08:21:55.433Z,2.00
2019-01-13T08:24:43.727Z,1.87
2019-01-13T08:31:07.156Z,2.00
2019-01-13T08:34:05.840Z,2.12
2019-01-13T08:36:37.906Z,1.95
2019-01-13T08:39:18.972Z,2.02
2019-01-13T08:42:00.221Z,2.15
2019-01-13T08:44:41.330Z,1.60
2019-01-13T08:47:22.531Z,2.58
2019-01-13T08:50:04.128Z,2.72
2019-01-13T08:55:33.741Z,2.70
2019-01-13T08:58:15.165Z,2.45
2019-01-13T09:00:56.154Z,2.70
2019-01-13T09:03:37.654Z,2.70
2019-01-13T09:06:19.076Z,3.20
2019-01-13T09:08:48.226Z,2.65
2019-01-13T09:11:36.514Z,3.45
2019-01-13T09:14:24.809Z,2.52
2019-01-13T09:17:13.338Z,2.67
2019-01-13T09:20:01.910Z,2.70
2019-01-13T09:22:50.465Z,3.67
2019-01-13T09:25:38.761Z,4.30
2019-01-13T09:28:27.304Z,3.95
2019-01-13T09:31:15.557Z,4.35
2019-01-13T09:34:05.710Z,3.90
2019-01-13T09:36:54.630Z,4.47
2019-01-13T09:39:42.494Z,4.12
2019-01-13T09:42:11.054Z,4.55
2019-01-13T09:44:59.411Z,5.47
2019-01-13T09:47:47.833Z,3.70
2019-01-13T09:50:36.337Z,4.25
2019-01-13T09:53:25.350Z,4.80
2019-01-13T10:01:45.546Z,5.05
2019-01-13T10:04:33.834Z,4.28
2019-01-13T10:07:22.127Z,5.45
2019-01-13T10:13:06.250Z,3.50
2019-01-13T10:15:54.581Z,4.75
2019-01-13T10:18:42.986Z,4.95
2019-01-13T10:21:31.476Z,4.08
2019-01-13T10:24:19.793Z,4.35
2019-01-13T10:33:41.415Z,4.78
2019-01-13T10:36:48.977Z,4.95
2019-01-13T10:42:52.576Z,3.67
2019-01-13T10:45:41.452Z,3.02
2019-01-13T10:48:30.462Z,3.45
2019-01-13T10:51:19.881Z,4.62
2019-01-13T10:54:09.285Z,3.10
2019-01-13T10:59:52.269Z,3.67
2019-01-13T11:02:40.799Z,4.22
2019-01-13T11:05:10.445Z,4.22
2019-01-13T11:07:39.612Z,4.67
2019-01-13T11:10:28.074Z,3.77
2019-01-13T11:13:16.288Z,4.45
2019-01-13T11:16:43.744Z,5.08
2019-01-13T11:19:33.231Z,4.33
2019-01-13T11:22:23.326Z,3.65
2019-01-13T11:25:12.578Z,2.67
2019-01-13T11:28:20.307Z,2.75
2019-01-13T11:31:01.511Z,2.62
2019-01-13T11:34:17.456Z,2.95
2019-01-13T11:36:29.709Z,2.33
2019-01-13T11:41:51.826Z,2.90
2019-01-13T11:44:40.221Z,2.25
2019-01-13T11:47:28.759Z,2.70
2019-01-13T11:57:51.914Z,1.30
2019-01-13T12:00:41.929Z,1.70
2019-01-13T12:03:16.753Z,1.47
2019-01-13T12:05:42.526Z,1.87
2019-01-13T12:08:38.922Z,1.40
2019-01-13T12:11:47.835Z,1.22
2019-01-13T12:14:37.873Z,1.07
2019-01-13T12:17:26.297Z,1.35
2019-01-13T12:20:16.225Z,1.15
2019-01-13T12:23:06.883Z,1.57
2019-01-13T12:40:26.036Z,1.00
2019-01-13T12:43:07.177Z,0.90
2019-01-13T12:45:48.175Z,0.80
2019-01-13T12:51:17.999Z,1.10
2019-01-13T12:53:59.883Z,1.15
2019-01-13T12:59:46.475Z,1.00
2019-01-13T13:02:28.963Z,1.60
2019-01-13T13:05:09.550Z,1.70
2019-01-13T13:07:50.426Z,2.12
2019-01-13T13:10:35.835Z,1.87
2019-01-13T13:13:16.446Z,2.05
2019-01-13T13:15:45.949Z,2.30
2019-01-13T13:18:15.222Z,2.58
2019-01-13T13:21:03.802Z,2.10
2019-01-13T13:23:52.333Z,2.92
2019-01-13T13:29:51.232Z,2.85
2019-01-13T13:32:37.164Z,2.65
2019-01-13T13:38:10.288Z,3.22
2019-01-13T13:46:23.576Z,4.03
2019-01-13T13:49:12.773Z,3.47
2019-01-13T13:52:00.043Z,4.75
2019-01-13T13:54:40.907Z,5.50
2019-01-13T13:57:22.317Z,8.23
2019-01-13T14:00:03.827Z,5.42
2019-01-13T14:02:34.379Z,4.10
2019-01-13T14:05:27.240Z,4.15
2019-01-13T14:14:45.997Z,4.37
2019-01-13T14:17:39.248Z,4.00
2019-01-13T14:20:28.280Z,4.12
2019-01-13T14:23:16.691Z,2.77
2019-01-13T14:26:05.266Z,3.10
2019-01-13T14:28:53.603Z,3.70
2019-01-13T14:31:23.684Z,3.80
2019-01-13T14:34:12.052Z,3.30
2019-01-13T14:36:46.202Z,4.12
2019-01-13T14:39:38.330Z,2.20
2019-01-13T14:42:08.077Z,3.45
2019-01-13T14:44:57.077Z,2.50
2019-01-13T14:47:46.519Z,2.30
2019-01-13T14:50:39.677Z,3.08
2019-01-13T14:53:28.252Z,2.37
2019-01-13T14:56:37.515Z,1.87
2019-01-13T15:03:16.024Z,3.05
2019-01-13T15:09:26.080Z,2.25
2019-01-13T15:12:15.148Z,1.85
2019-01-13T15:15:06.669Z,1.67
2019-01-13T15:17:36.506Z,1.37
2019-01-13T15:20:25.850Z,1.77
2019-01-13T15:22:59.012Z,2.00
2019-01-13T15:26:24.619Z,1.17
2019-01-13T15:28:54.028Z,1.70
2019-01-13T15:35:01.780Z,1.55
2019-01-13T15:43:45.477Z,2.02
2019-01-13T15:49:42.715Z,1.62
2019-01-13T15:52:23.490Z,1.50
2019-01-13T15:55:04.615Z,1.72
2019-01-13T15:57:45.191Z,1.17
2019-01-13T16:00:25.927Z,1.62
2019-01-13T16:03:07.234Z,1.80
2019-01-13T16:05:48.066Z,1.50
2019-01-13T16:08:29.273Z,2.20
2019-01-13T16:11:10.074Z,1.95
2019-01-13T16:13:51.496Z,1.72
2019-01-13T16:16:32.093Z,1.40
2019-01-13T16:19:12.776Z,1.85
2019-01-13T16:22:01.384Z,2.65
2019-01-13T16:27:39.083Z,3.17
2019-01-13T16:33:16.177Z,1.50
2019-01-13T16:35:56.846Z,1.52
2019-01-13T16:38:37.677Z,1.57
2019-01-13T16:41:18.483Z,1.77
2019-01-13T16:44:18.370Z,1.55
2019-01-13T16:46:59.638Z,1.57
2019-01-13T16:49:51.612Z,1.67
2019-01-13T16:55:29.118Z,2.20
2019-01-13T17:02:15.136Z,2.22
2019-01-13T17:08:00.292Z,4.45
2019-01-13T17:10:47.267Z,3.00
2019-01-13T17:13:35.442Z,2.20
2019-01-13T17:33:15.115Z,1.62
2019-01-13T17:35:55.906Z,1.77
2019-01-13T17:38:36.937Z,1.70
2019-01-13T17:41:18.217Z,1.65
2019-01-13T17:47:08.320Z,2.47
2019-01-13T17:49:49.730Z,3.65
2019-01-13T17:52:30.562Z,3.12
2019-01-13T17:55:11.086Z,1.82
2019-01-13T17:57:52.324Z,1.50
2019-01-13T18:00:32.969Z,1.45
2019-01-13T18:03:14.426Z,1.67
2019-01-13T18:05:56.022Z,1.35
2019-01-13T18:08:37.334Z,1.82
2019-01-13T18:11:18.174Z,1.30
2019-01-13T18:14:02.541Z,0.80
2019-01-13T18:16:44.150Z,2.83
2019-01-13T18:19:25.426Z,1.40
2019-01-13T18:25:11.547Z,1.30
2019-01-13T18:27:52.385Z,0.90
2019-01-13T18:30:33.842Z,1.35
2019-01-13T18:36:22.938Z,1.30
2019-01-13T18:39:04.327Z,1.17
2019-01-13T18:41:45.078Z,1.40
2019-01-13T18:44:26.074Z,1.20
2019-01-13T18:47:07.363Z,1.70
2019-01-13T18:49:48.370Z,1.50
2019-01-13T18:52:29.782Z,1.30
2019-01-13T18:55:10.762Z,1.30
2019-01-13T18:57:51.699Z,1.30
2019-01-13T19:00:32.222Z,1.00
2019-01-13T19:03:13.138Z,1.30
2019-01-13T19:05:54.460Z,1.57
2019-01-13T19:08:36.498Z,1.00
2019-01-13T19:11:18.006Z,2.12
2019-01-13T19:13:58.639Z,1.55
2019-01-13T19:16:39.409Z,1.27
2019-01-13T19:19:20.832Z,2.05
2019-01-13T19:22:01.387Z,2.20
2019-01-13T19:24:42.802Z,2.80
2019-01-13T19:27:13.977Z,1.92
2019-01-13T19:29:54.579Z,2.40
2019-01-13T19:32:38.647Z,2.30
2019-01-13T19:35:19.861Z,1.75
2019-01-13T19:38:00.621Z,1.50
2019-01-13T19:40:41.190Z,1.77
2019-01-13T19:43:21.813Z,2.15
2019-01-13T19:46:02.890Z,1.92
2019-01-13T19:48:43.485Z,2.15
2019-01-13T19:51:24.835Z,1.70
2019-01-13T19:54:06.062Z,2.95
2019-01-13T19:56:47.177Z,3.60
2019-01-13T19:59:28.612Z,2.45
2019-01-13T20:02:09.131Z,3.15
2019-01-13T20:04:51.244Z,3.20
2019-01-13T20:07:32.352Z,3.12
2019-01-13T20:10:13.226Z,6.10
2019-01-13T20:16:13.416Z,2.10
2019-01-13T20:18:54.208Z,2.40
2019-01-13T20:21:35.056Z,3.40
2019-01-13T20:24:16.110Z,3.40
2019-01-13T20:26:56.901Z,3.20
2019-01-13T20:29:38.171Z,2.60
2019-01-13T20:32:18.867Z,3.50
2019-01-13T20:35:00.359Z,1.98
2019-01-13T20:37:41.270Z,2.58
2019-01-13T20:40:22.546Z,1.77
2019-01-13T20:43:03.993Z,5.67
2019-01-13T20:45:44.545Z,2.85
2019-01-13T20:48:26.023Z,3.47
2019-01-13T20:51:07.282Z,3.60
2019-01-13T20:53:48.245Z,3.17
2019-01-13T20:56:28.862Z,2.35
2019-01-13T20:59:10.127Z,2.45
2019-01-13T21:01:51.521Z,2.47
2019-01-13T21:04:32.426Z,2.05
2019-01-13T21:07:13.235Z,1.60
2019-01-13T21:09:54.331Z,2.90
2019-01-13T21:12:35.689Z,4.62
2019-01-13T21:15:16.730Z,2.62
2019-01-13T21:17:58.226Z,2.45
2019-01-13T21:20:39.137Z,2.25
2019-01-13T21:23:19.963Z,2.55
2019-01-13T21:26:00.625Z,3.58
2019-01-13T21:28:41.563Z,2.80
2019-01-13T21:31:22.331Z,2.25
2019-01-13T21:34:03.323Z,3.08
2019-01-13T21:36:44.689Z,3.70
2019-01-13T21:39:25.342Z,2.60
2019-01-13T21:42:05.903Z,2.25
2019-01-13T21:44:46.431Z,1.95
2019-01-13T21:47:28.124Z,2.22
2019-01-13T21:50:09.286Z,3.35
2019-01-13T21:52:49.945Z,3.00
2019-01-13T21:58:39.016Z,2.30
2019-01-13T22:01:19.872Z,3.17
2019-01-13T22:04:00.739Z,3.65
2019-01-13T22:06:42.000Z,1.98
2019-01-13T22:09:23.252Z,3.22
2019-01-13T22:12:04.804Z,1.75
2019-01-13T22:14:45.377Z,2.80
2019-01-13T22:20:25.088Z,2.60
2019-01-13T22:23:05.754Z,3.15
2019-01-13T22:25:47.000Z,3.87
2019-01-13T22:28:28.182Z,2.50
2019-01-13T22:31:08.908Z,2.67
2019-01-13T22:33:49.675Z,4.45
2019-01-13T22:36:30.930Z,2.40
2019-01-13T22:39:11.803Z,2.62
2019-01-13T22:41:52.734Z,2.58
2019-01-13T22:44:33.411Z,2.20
2019-01-13T22:47:14.220Z,1.55
2019-01-13T22:49:54.920Z,2.17
2019-01-13T22:52:35.843Z,1.42
2019-01-13T22:55:16.495Z,1.85
2019-01-13T22:57:58.242Z,2.08
2019-01-13T23:00:58.471Z,2.05
2019-01-13T23:03:40.195Z,3.17
2019-01-13T23:06:21.522Z,4.30
2019-01-13T23:09:04.143Z,3.55
2019-01-13T23:11:45.118Z,4.08
2019-01-13T23:14:26.245Z,2.35
2019-01-13T23:17:07.063Z,3.20
2019-01-13T23:19:47.978Z,3.22
2019-01-13T23:22:28.878Z,1.98
2019-01-13T23:25:09.678Z,2.65
2019-01-13T23:27:50.562Z,3.10
2019-01-13T23:30:31.370Z,1.98
2019-01-13T23:33:12.580Z,3.10
2019-01-13T23:35:53.950Z,2.40
2019-01-13T23:41:16.691Z,3.00
2019-01-13T23:43:57.359Z,2.35
2019-01-13T23:46:38.634Z,2.12
2019-01-13T23:49:20.171Z,3.02
2019-01-13T23:52:00.718Z,2.87
2019-01-13T23:54:41.930Z,2.60
2019-01-13T23:57:26.238Z,2.83
